sensor_id;sensor_type;location;lat;lon;timestamp;pressure;altitude;pressure_sealevel;temperature;humidity
64025;BME280;50266;57.446;26.936;2024-01-16T00:00:11;95285.28;;;-2.03;100.0
64025;BME280;50266;57.446;26.936;2024-01-16T00:01:10;95286.25;;;-2.03;100.0
64025;BME280;50266;57.446;26.936;2024-01-16T00:02:10;95287.09;;;-2.02;100.0
64025;BME280;50266;57.446;26.936;2024-01-16T00:03:10;95285.86;;;-2.02;100.0
64025;BME280;50266;57.446;26.936;2024-01-16T00:04:11;95284.22;;;-2.02;100.0
64025;BME280;50266;57.446;26.936;2024-01-16T00:05:10;95286.55;;;-2.04;100.0
64025;BME280;50266;57.446;26.936;2024-01-16T00:06:11;95288.88;;;-2.02;100.0
64025;BME280;50266;57.446;26.936;2024-01-16T00:07:11;95297.43;;;-2.01;100.0
64025;BME280;50266;57.446;26.936;2024-01-16T00:08:11;95287.41;;;-2.02;100.0
64025;BME280;50266;57.446;26.936;2024-01-16T00:09:11;95289.56;;;-2.0;100.0
64025;BME280;50266;57.446;26.936;2024-01-16T00:10:11;95288.0;;;-2.01;100.0
64025;BME280;50266;57.446;26.936;2024-01-16T00:11:11;95285.67;;;-2.03;100.0
64025;BME280;50266;57.446;26.936;2024-01-16T00:12:11;95284.31;;;-2.02;100.0
64025;BME280;50266;57.446;26.936;2024-01-16T00:13:11;95285.16;;;-2.01;100.0
64025;BME280;50266;57.446;26.936;2024-01-16T00:14:11;95287.03;;;-2.01;100.0
64025;BME280;50266;57.446;26.936;2024-01-16T00:15:11;95289.19;;;-2.02;100.0
64025;BME280;50266;57.446;26.936;2024-01-16T00:16:11;95288.7;;;-2.05;100.0
64025;BME280;50266;57.446;26.936;2024-01-16T00:17:11;95287.6;;;-2.04;100.0
64025;BME280;50266;57.446;26.936;2024-01-16T00:18:11;95284.97;;;-2.05;100.0
64025;BME280;50266;57.446;26.936;2024-01-16T00:19:11;95281.73;;;-2.04;100.0
64025;BME280;50266;57.446;26.936;2024-01-16T00:20:11;95287.85;;;-2.04;100.0
64025;BME280;50266;57.446;26.936;2024-01-16T00:21:11;95289.57;;;-2.07;100.0
64025;BME280;50266;57.446;26.936;2024-01-16T00:22:11;95291.84;;;-2.07;100.0
64025;BME280;50266;57.446;26.936;2024-01-16T00:23:11;95287.84;;;-2.09;100.0
64025;BME280;50266;57.446;26.936;2024-01-16T00:24:11;95287.45;;;-2.08;100.0
64025;BME280;50266;57.446;26.936;2024-01-16T00:25:11;95289.17;;;-2.07;100.0
64025;BME280;50266;57.446;26.936;2024-01-16T00:26:21;95284.95;;;-2.11;100.0
64025;BME280;50266;57.446;26.936;2024-01-16T00:27:12;95283.47;;;-2.15;100.0
64025;BME280;50266;57.446;26.936;2024-01-16T00:28:12;95284.86;;;-2.11;100.0
64025;BME280;50266;57.446;26.936;2024-01-16T00:29:12;95284.62;;;-2.11;100.0
64025;BME280;50266;57.446;26.936;2024-01-16T00:30:13;95284.97;;;-2.14;100.0
64025;BME280;50266;57.446;26.936;2024-01-16T00:31:12;95280.77;;;-2.16;100.0
64025;BME280;50266;57.446;26.936;2024-01-16T00:32:12;95285.58;;;-2.12;100.0
64025;BME280;50266;57.446;26.936;2024-01-16T00:33:12;95282.98;;;-2.11;100.0
64025;BME280;50266;57.446;26.936;2024-01-16T00:34:12;95284.79;;;-2.11;100.0
64025;BME280;50266;57.446;26.936;2024-01-16T00:35:12;95284.93;;;-2.12;100.0
64025;BME280;50266;57.446;26.936;2024-01-16T00:36:13;95282.88;;;-2.13;100.0
64025;BME280;50266;57.446;26.936;2024-01-16T00:37:13;95280.31;;;-2.11;100.0
64025;BME280;50266;57.446;26.936;2024-01-16T00:38:13;95281.48;;;-2.13;100.0
64025;BME280;50266;57.446;26.936;2024-01-16T00:39:13;95278.39;;;-2.1;100.0
64025;BME280;50266;57.446;26.936;2024-01-16T00:40:13;95276.05;;;-2.13;100.0
64025;BME280;50266;57.446;26.936;2024-01-16T00:41:13;95278.67;;;-2.12;100.0
64025;BME280;50266;57.446;26.936;2024-01-16T00:42:13;95280.46;;;-2.12;100.0
64025;BME280;50266;57.446;26.936;2024-01-16T00:43:13;95279.12;;;-2.14;100.0
64025;BME280;50266;57.446;26.936;2024-01-16T00:44:13;95278.09;;;-2.12;100.0
64025;BME280;50266;57.446;26.936;2024-01-16T00:45:13;95276.05;;;-2.13;100.0
64025;BME280;50266;57.446;26.936;2024-01-16T00:46:13;95274.3;;;-2.11;100.0
64025;BME280;50266;57.446;26.936;2024-01-16T00:47:13;95274.92;;;-2.15;100.0
64025;BME280;50266;57.446;26.936;2024-01-16T00:48:13;95275.3;;;-2.13;100.0
64025;BME280;50266;57.446;26.936;2024-01-16T00:49:13;95274.52;;;-2.12;100.0
64025;BME280;50266;57.446;26.936;2024-01-16T00:50:13;95273.6;;;-2.13;100.0
64025;BME280;50266;57.446;26.936;2024-01-16T00:51:13;95275.62;;;-2.13;100.0
64025;BME280;50266;57.446;26.936;2024-01-16T00:52:13;95277.02;;;-2.13;100.0
64025;BME280;50266;57.446;26.936;2024-01-16T00:53:13;95272.91;;;-2.15;100.0
64025;BME280;50266;57.446;26.936;2024-01-16T00:54:13;95275.88;;;-2.16;100.0
64025;BME280;50266;57.446;26.936;2024-01-16T00:55:13;95279.69;;;-2.17;100.0
64025;BME280;50266;57.446;26.936;2024-01-16T00:56:13;95274.89;;;-2.17;100.0
64025;BME280;50266;57.446;26.936;2024-01-16T00:57:13;95276.79;;;-2.16;100.0
64025;BME280;50266;57.446;26.936;2024-01-16T00:58:13;95280.66;;;-2.13;100.0
64025;BME280;50266;57.446;26.936;2024-01-16T00:59:13;95278.92;;;-2.11;100.0
64025;BME280;50266;57.446;26.936;2024-01-16T01:00:13;95289.94;;;-2.1;100.0
64025;BME280;50266;57.446;26.936;2024-01-16T01:01:13;95279.72;;;-2.16;100.0
64025;BME280;50266;57.446;26.936;2024-01-16T01:02:14;95283.53;;;-2.13;100.0
64025;BME280;50266;57.446;26.936;2024-01-16T01:03:13;95281.55;;;-2.14;100.0
64025;BME280;50266;57.446;26.936;2024-01-16T01:04:13;95282.14;;;-2.1;100.0
64025;BME280;50266;57.446;26.936;2024-01-16T01:05:13;95280.3;;;-2.12;100.0
64025;BME280;50266;57.446;26.936;2024-01-16T01:06:13;95283.38;;;-2.12;100.0
64025;BME280;50266;57.446;26.936;2024-01-16T01:07:14;95290.09;;;-2.13;100.0
64025;BME280;50266;57.446;26.936;2024-01-16T01:08:13;95286.23;;;-2.12;100.0
64025;BME280;50266;57.446;26.936;2024-01-16T01:09:13;95288.45;;;-2.11;100.0
64025;BME280;50266;57.446;26.936;2024-01-16T01:10:13;95293.39;;;-2.11;100.0
64025;BME280;50266;57.446;26.936;2024-01-16T01:11:14;95289.78;;;-2.13;100.0
64025;BME280;50266;57.446;26.936;2024-01-16T01:12:14;95291.2;;;-2.14;100.0
64025;BME280;50266;57.446;26.936;2024-01-16T01:13:14;95292.97;;;-2.15;100.0
64025;BME280;50266;57.446;26.936;2024-01-16T01:14:14;95291.91;;;-2.12;100.0
64025;BME280;50266;57.446;26.936;2024-01-16T01:15:14;95286.49;;;-2.14;100.0
64025;BME280;50266;57.446;26.936;2024-01-16T01:16:14;95288.89;;;-2.16;100.0
64025;BME280;50266;57.446;26.936;2024-01-16T01:17:14;95285.09;;;-2.15;100.0
64025;BME280;50266;57.446;26.936;2024-01-16T01:18:14;95289.41;;;-2.18;100.0
64025;BME280;50266;57.446;26.936;2024-01-16T01:19:14;95292.22;;;-2.16;100.0
64025;BME280;50266;57.446;26.936;2024-01-16T01:20:14;95292.5;;;-2.15;100.0
64025;BME280;50266;57.446;26.936;2024-01-16T01:21:14;95298.03;;;-2.14;100.0
64025;BME280;50266;57.446;26.936;2024-01-16T01:22:14;95297.11;;;-2.12;100.0
64025;BME280;50266;57.446;26.936;2024-01-16T01:23:14;95296.02;;;-2.14;100.0
64025;BME280;50266;57.446;26.936;2024-01-16T01:24:14;95289.82;;;-2.18;100.0
64025;BME280;50266;57.446;26.936;2024-01-16T01:25:14;95290.7;;;-2.19;100.0
64025;BME280;50266;57.446;26.936;2024-01-16T01:26:14;95291.56;;;-2.17;100.0
64025;BME280;50266;57.446;26.936;2024-01-16T01:27:14;95293.58;;;-2.17;100.0
64025;BME280;50266;57.446;26.936;2024-01-16T01:28:14;95296.48;;;-2.15;100.0
64025;BME280;50266;57.446;26.936;2024-01-16T01:29:14;95302.71;;;-2.13;100.0
64025;BME280;50266;57.446;26.936;2024-01-16T01:30:14;95300.25;;;-2.14;100.0
64025;BME280;50266;57.446;26.936;2024-01-16T01:31:14;95298.08;;;-2.16;100.0
64025;BME280;50266;57.446;26.936;2024-01-16T01:32:14;95300.61;;;-2.15;100.0
64025;BME280;50266;57.446;26.936;2024-01-16T01:33:14;95302.12;;;-2.13;100.0
64025;BME280;50266;57.446;26.936;2024-01-16T01:34:14;95300.59;;;-2.13;100.0
64025;BME280;50266;57.446;26.936;2024-01-16T01:35:16;95301.31;;;-2.13;100.0
64025;BME280;50266;57.446;26.936;2024-01-16T01:36:14;95303.73;;;-2.11;100.0
64025;BME280;50266;57.446;26.936;2024-01-16T01:37:14;95309.02;;;-2.14;100.0
64025;BME280;50266;57.446;26.936;2024-01-16T01:38:14;95312.22;;;-2.12;100.0
64025;BME280;50266;57.446;26.936;2024-01-16T01:39:14;95316.56;;;-2.14;100.0
64025;BME280;50266;57.446;26.936;2024-01-16T01:40:15;95311.44;;;-2.11;100.0
64025;BME280;50266;57.446;26.936;2024-01-16T01:41:14;95311.71;;;-2.1;100.0
64025;BME280;50266;57.446;26.936;2024-01-16T01:42:15;95316.7;;;-2.09;100.0
64025;BME280;50266;57.446;26.936;2024-01-16T01:43:19;95311.27;;;-2.12;100.0
64025;BME280;50266;57.446;26.936;2024-01-16T01:44:15;95318.25;;;-2.09;100.0
64025;BME280;50266;57.446;26.936;2024-01-16T01:45:15;95318.11;;;-2.11;100.0
64025;BME280;50266;57.446;26.936;2024-01-16T01:46:18;95318.12;;;-2.1;100.0
64025;BME280;50266;57.446;26.936;2024-01-16T01:47:15;95318.78;;;-2.1;100.0
64025;BME280;50266;57.446;26.936;2024-01-16T01:48:15;95319.62;;;-2.09;100.0
64025;BME280;50266;57.446;26.936;2024-01-16T01:49:15;95317.2;;;-2.07;100.0
64025;BME280;50266;57.446;26.936;2024-01-16T01:50:15;95317.92;;;-2.08;100.0
64025;BME280;50266;57.446;26.936;2024-01-16T01:51:17;95317.7;;;-2.08;100.0
64025;BME280;50266;57.446;26.936;2024-01-16T01:52:15;95316.88;;;-2.08;100.0
64025;BME280;50266;57.446;26.936;2024-01-16T01:53:15;95312.66;;;-2.07;100.0
64025;BME280;50266;57.446;26.936;2024-01-16T01:54:15;95313.95;;;-2.07;100.0
64025;BME280;50266;57.446;26.936;2024-01-16T01:55:15;95316.41;;;-2.07;100.0
64025;BME280;50266;57.446;26.936;2024-01-16T01:56:16;95318.2;;;-2.07;100.0
64025;BME280;50266;57.446;26.936;2024-01-16T01:57:15;95322.29;;;-2.1;100.0
64025;BME280;50266;57.446;26.936;2024-01-16T01:58:15;95323.48;;;-2.07;100.0
64025;BME280;50266;57.446;26.936;2024-01-16T01:59:16;95319.95;;;-2.09;100.0
64025;BME280;50266;57.446;26.936;2024-01-16T02:00:15;95315.91;;;-2.07;100.0
64025;BME280;50266;57.446;26.936;2024-01-16T02:01:16;95323.05;;;-2.09;100.0
64025;BME280;50266;57.446;26.936;2024-01-16T02:02:15;95321.94;;;-2.07;100.0
64025;BME280;50266;57.446;26.936;2024-01-16T02:03:15;95319.6;;;-2.1;100.0
64025;BME280;50266;57.446;26.936;2024-01-16T02:04:15;95323.33;;;-2.07;100.0
64025;BME280;50266;57.446;26.936;2024-01-16T02:05:16;95327.22;;;-2.06;100.0
64025;BME280;50266;57.446;26.936;2024-01-16T02:06:15;95327.07;;;-2.07;100.0
64025;BME280;50266;57.446;26.936;2024-01-16T02:07:15;95332.19;;;-2.06;100.0
64025;BME280;50266;57.446;26.936;2024-01-16T02:08:15;95328.41;;;-2.09;100.0
64025;BME280;50266;57.446;26.936;2024-01-16T02:09:15;95329.08;;;-2.08;100.0
64025;BME280;50266;57.446;26.936;2024-01-16T02:10:16;95329.5;;;-2.06;100.0
64025;BME280;50266;57.446;26.936;2024-01-16T02:11:15;95328.71;;;-2.05;100.0
64025;BME280;50266;57.446;26.936;2024-01-16T02:12:15;95332.29;;;-2.05;100.0
64025;BME280;50266;57.446;26.936;2024-01-16T02:13:15;95330.05;;;-2.07;100.0
64025;BME280;50266;57.446;26.936;2024-01-16T02:14:15;95327.83;;;-2.09;100.0
64025;BME280;50266;57.446;26.936;2024-01-16T02:15:15;95329.27;;;-2.06;100.0
64025;BME280;50266;57.446;26.936;2024-01-16T02:16:19;95330.33;;;-2.05;100.0
64025;BME280;50266;57.446;26.936;2024-01-16T02:17:16;95326.99;;;-2.1;100.0
64025;BME280;50266;57.446;26.936;2024-01-16T02:18:16;95330.7;;;-2.11;100.0
64025;BME280;50266;57.446;26.936;2024-01-16T02:19:16;95329.16;;;-2.08;100.0
64025;BME280;50266;57.446;26.936;2024-01-16T02:20:16;95330.23;;;-2.07;100.0
64025;BME280;50266;57.446;26.936;2024-01-16T02:21:17;95329.13;;;-2.09;100.0
64025;BME280;50266;57.446;26.936;2024-01-16T02:22:17;95326.72;;;-2.11;100.0
64025;BME280;50266;57.446;26.936;2024-01-16T02:23:16;95323.19;;;-2.13;100.0
64025;BME280;50266;57.446;26.936;2024-01-16T02:24:16;95330.88;;;-2.14;100.0
64025;BME280;50266;57.446;26.936;2024-01-16T02:25:16;95324.24;;;-2.13;100.0
64025;BME280;50266;57.446;26.936;2024-01-16T02:26:16;95324.68;;;-2.15;100.0
64025;BME280;50266;57.446;26.936;2024-01-16T02:27:16;95326.82;;;-2.14;100.0
64025;BME280;50266;57.446;26.936;2024-01-16T02:28:16;95331.33;;;-2.15;100.0
64025;BME280;50266;57.446;26.936;2024-01-16T02:29:16;95329.68;;;-2.13;100.0
64025;BME280;50266;57.446;26.936;2024-01-16T02:30:16;95326.45;;;-2.12;100.0
64025;BME280;50266;57.446;26.936;2024-01-16T02:31:16;95327.09;;;-2.16;100.0
64025;BME280;50266;57.446;26.936;2024-01-16T02:32:16;95325.87;;;-2.19;100.0
64025;BME280;50266;57.446;26.936;2024-01-16T02:33:16;95324.62;;;-2.2;100.0
64025;BME280;50266;57.446;26.936;2024-01-16T02:34:16;95323.89;;;-2.24;100.0
64025;BME280;50266;57.446;26.936;2024-01-16T02:35:16;95325.41;;;-2.25;100.0
64025;BME280;50266;57.446;26.936;2024-01-16T02:36:16;95321.53;;;-2.27;100.0
64025;BME280;50266;57.446;26.936;2024-01-16T02:37:16;95321.09;;;-2.25;100.0
64025;BME280;50266;57.446;26.936;2024-01-16T02:38:16;95325.44;;;-2.27;100.0
64025;BME280;50266;57.446;26.936;2024-01-16T02:39:16;95326.77;;;-2.26;100.0
64025;BME280;50266;57.446;26.936;2024-01-16T02:40:16;95321.64;;;-2.26;100.0
64025;BME280;50266;57.446;26.936;2024-01-16T02:41:16;95322.45;;;-2.27;100.0
64025;BME280;50266;57.446;26.936;2024-01-16T02:42:16;95326.11;;;-2.26;100.0
64025;BME280;50266;57.446;26.936;2024-01-16T02:43:16;95327.08;;;-2.26;100.0
64025;BME280;50266;57.446;26.936;2024-01-16T02:44:16;95324.48;;;-2.26;100.0
64025;BME280;50266;57.446;26.936;2024-01-16T02:45:17;95324.85;;;-2.28;100.0
64025;BME280;50266;57.446;26.936;2024-01-16T02:46:16;95325.66;;;-2.28;100.0
64025;BME280;50266;57.446;26.936;2024-01-16T02:47:16;95331.36;;;-2.32;100.0
64025;BME280;50266;57.446;26.936;2024-01-16T02:48:16;95331.14;;;-2.31;100.0
64025;BME280;50266;57.446;26.936;2024-01-16T02:49:16;95334.69;;;-2.32;100.0
64025;BME280;50266;57.446;26.936;2024-01-16T02:50:16;95334.33;;;-2.33;100.0
64025;BME280;50266;57.446;26.936;2024-01-16T02:51:16;95332.39;;;-2.33;100.0
64025;BME280;50266;57.446;26.936;2024-01-16T02:52:16;95331.86;;;-2.31;100.0
64025;BME280;50266;57.446;26.936;2024-01-16T02:53:16;95330.75;;;-2.33;100.0
64025;BME280;50266;57.446;26.936;2024-01-16T02:54:17;95332.23;;;-2.33;100.0
64025;BME280;50266;57.446;26.936;2024-01-16T02:55:16;95334.43;;;-2.32;100.0
64025;BME280;50266;57.446;26.936;2024-01-16T02:56:16;95332.04;;;-2.34;100.0
64025;BME280;50266;57.446;26.936;2024-01-16T02:57:16;95334.45;;;-2.35;100.0
64025;BME280;50266;57.446;26.936;2024-01-16T02:58:16;95330.2;;;-2.36;100.0
64025;BME280;50266;57.446;26.936;2024-01-16T02:59:16;95329.08;;;-2.35;100.0
64025;BME280;50266;57.446;26.936;2024-01-16T03:00:16;95333.33;;;-2.37;100.0
64025;BME280;50266;57.446;26.936;2024-01-16T03:01:16;95334.95;;;-2.4;100.0
64025;BME280;50266;57.446;26.936;2024-01-16T03:02:16;95331.22;;;-2.4;100.0
64025;BME280;50266;57.446;26.936;2024-01-16T03:03:16;95334.98;;;-2.39;100.0
64025;BME280;50266;57.446;26.936;2024-01-16T03:04:16;95332.72;;;-2.39;100.0
64025;BME280;50266;57.446;26.936;2024-01-16T03:05:16;95332.45;;;-2.43;100.0
64025;BME280;50266;57.446;26.936;2024-01-16T03:06:22;95333.13;;;-2.42;100.0
64025;BME280;50266;57.446;26.936;2024-01-16T03:07:19;95330.38;;;-2.42;100.0
64025;BME280;50266;57.446;26.936;2024-01-16T03:08:19;95331.34;;;-2.39;100.0
64025;BME280;50266;57.446;26.936;2024-01-16T03:09:19;95332.22;;;-2.43;100.0
64025;BME280;50266;57.446;26.936;2024-01-16T03:10:19;95335.61;;;-2.44;100.0
64025;BME280;50266;57.446;26.936;2024-01-16T03:11:19;95330.84;;;-2.42;100.0
64025;BME280;50266;57.446;26.936;2024-01-16T03:12:19;95334.66;;;-2.43;100.0
64025;BME280;50266;57.446;26.936;2024-01-16T03:13:19;95335.3;;;-2.43;100.0
64025;BME280;50266;57.446;26.936;2024-01-16T03:14:19;95337.56;;;-2.43;100.0
64025;BME280;50266;57.446;26.936;2024-01-16T03:15:19;95331.81;;;-2.42;100.0
64025;BME280;50266;57.446;26.936;2024-01-16T03:16:19;95334.51;;;-2.42;100.0
64025;BME280;50266;57.446;26.936;2024-01-16T03:17:19;95332.5;;;-2.41;100.0
64025;BME280;50266;57.446;26.936;2024-01-16T03:18:19;95333.23;;;-2.41;100.0
64025;BME280;50266;57.446;26.936;2024-01-16T03:19:19;95334.63;;;-2.4;100.0
64025;BME280;50266;57.446;26.936;2024-01-16T03:20:19;95331.7;;;-2.41;100.0
64025;BME280;50266;57.446;26.936;2024-01-16T03:21:19;95323.3;;;-2.42;100.0
64025;BME280;50266;57.446;26.936;2024-01-16T03:22:19;95324.97;;;-2.43;100.0
64025;BME280;50266;57.446;26.936;2024-01-16T03:23:19;95325.32;;;-2.42;100.0
64025;BME280;50266;57.446;26.936;2024-01-16T03:24:19;95326.66;;;-2.44;100.0
64025;BME280;50266;57.446;26.936;2024-01-16T03:25:19;95329.72;;;-2.45;100.0
64025;BME280;50266;57.446;26.936;2024-01-16T03:26:19;95331.14;;;-2.47;100.0
64025;BME280;50266;57.446;26.936;2024-01-16T03:27:19;95331.56;;;-2.46;100.0
64025;BME280;50266;57.446;26.936;2024-01-16T03:28:19;95327.97;;;-2.47;100.0
64025;BME280;50266;57.446;26.936;2024-01-16T03:29:19;95325.66;;;-2.49;100.0
64025;BME280;50266;57.446;26.936;2024-01-16T03:30:19;95326.88;;;-2.49;100.0
64025;BME280;50266;57.446;26.936;2024-01-16T03:31:19;95330.45;;;-2.48;100.0
64025;BME280;50266;57.446;26.936;2024-01-16T03:32:19;95330.48;;;-2.47;100.0
64025;BME280;50266;57.446;26.936;2024-01-16T03:33:19;95329.16;;;-2.48;100.0
64025;BME280;50266;57.446;26.936;2024-01-16T03:34:19;95331.45;;;-2.47;100.0
64025;BME280;50266;57.446;26.936;2024-01-16T03:35:19;95330.08;;;-2.47;100.0
64025;BME280;50266;57.446;26.936;2024-01-16T03:36:19;95332.81;;;-2.48;100.0
64025;BME280;50266;57.446;26.936;2024-01-16T03:37:19;95336.31;;;-2.49;100.0
64025;BME280;50266;57.446;26.936;2024-01-16T03:38:19;95329.08;;;-2.49;100.0
64025;BME280;50266;57.446;26.936;2024-01-16T03:39:19;95335.86;;;-2.5;100.0
64025;BME280;50266;57.446;26.936;2024-01-16T03:40:19;95331.78;;;-2.51;100.0
64025;BME280;50266;57.446;26.936;2024-01-16T03:41:19;95335.41;;;-2.49;100.0
64025;BME280;50266;57.446;26.936;2024-01-16T03:42:19;95336.78;;;-2.5;100.0
64025;BME280;50266;57.446;26.936;2024-01-16T03:43:19;95331.66;;;-2.5;100.0
64025;BME280;50266;57.446;26.936;2024-01-16T03:44:19;95329.86;;;-2.5;100.0
64025;BME280;50266;57.446;26.936;2024-01-16T03:45:19;95335.11;;;-2.51;100.0
64025;BME280;50266;57.446;26.936;2024-01-16T03:46:19;95331.11;;;-2.52;100.0
64025;BME280;50266;57.446;26.936;2024-01-16T03:47:19;95328.58;;;-2.53;100.0
64025;BME280;50266;57.446;26.936;2024-01-16T03:48:19;95331.81;;;-2.53;100.0
64025;BME280;50266;57.446;26.936;2024-01-16T03:49:19;95331.71;;;-2.54;100.0
64025;BME280;50266;57.446;26.936;2024-01-16T03:50:19;95330.98;;;-2.54;100.0
64025;BME280;50266;57.446;26.936;2024-01-16T03:51:19;95336.46;;;-2.52;100.0
64025;BME280;50266;57.446;26.936;2024-01-16T03:52:19;95335.81;;;-2.52;100.0
64025;BME280;50266;57.446;26.936;2024-01-16T03:53:20;95332.9;;;-2.52;100.0
64025;BME280;50266;57.446;26.936;2024-01-16T03:54:19;95333.15;;;-2.52;100.0
64025;BME280;50266;57.446;26.936;2024-01-16T03:55:19;95332.19;;;-2.51;100.0
64025;BME280;50266;57.446;26.936;2024-01-16T03:56:19;95333.84;;;-2.53;100.0
64025;BME280;50266;57.446;26.936;2024-01-16T03:57:19;95329.46;;;-2.53;100.0
64025;BME280;50266;57.446;26.936;2024-01-16T03:58:19;95330.32;;;-2.54;100.0
64025;BME280;50266;57.446;26.936;2024-01-16T03:59:19;95335.86;;;-2.54;100.0
64025;BME280;50266;57.446;26.936;2024-01-16T04:00:19;95336.69;;;-2.56;100.0
64025;BME280;50266;57.446;26.936;2024-01-16T04:01:29;95339.83;;;-2.57;100.0
64025;BME280;50266;57.446;26.936;2024-01-16T04:02:20;95337.56;;;-2.57;100.0
64025;BME280;50266;57.446;26.936;2024-01-16T04:03:20;95336.53;;;-2.59;100.0
64025;BME280;50266;57.446;26.936;2024-01-16T04:04:20;95337.55;;;-2.57;100.0
64025;BME280;50266;57.446;26.936;2024-01-16T04:05:20;95337.98;;;-2.59;100.0
64025;BME280;50266;57.446;26.936;2024-01-16T04:06:20;95340.91;;;-2.62;100.0
64025;BME280;50266;57.446;26.936;2024-01-16T04:07:22;95349.04;;;-2.62;100.0
64025;BME280;50266;57.446;26.936;2024-01-16T04:08:20;95351.2;;;-2.6;100.0
64025;BME280;50266;57.446;26.936;2024-01-16T04:09:20;95354.2;;;-2.57;100.0
64025;BME280;50266;57.446;26.936;2024-01-16T04:10:20;95352.08;;;-2.55;100.0
64025;BME280;50266;57.446;26.936;2024-01-16T04:11:20;95355.98;;;-2.55;100.0
64025;BME280;50266;57.446;26.936;2024-01-16T04:12:21;95352.95;;;-2.53;100.0
64025;BME280;50266;57.446;26.936;2024-01-16T04:13:20;95352.62;;;-2.52;100.0
64025;BME280;50266;57.446;26.936;2024-01-16T04:14:20;95351.7;;;-2.53;100.0
64025;BME280;50266;57.446;26.936;2024-01-16T04:15:20;95356.16;;;-2.57;100.0
64025;BME280;50266;57.446;26.936;2024-01-16T04:16:20;95354.68;;;-2.64;100.0
64025;BME280;50266;57.446;26.936;2024-01-16T04:17:20;95357.69;;;-2.67;100.0
64025;BME280;50266;57.446;26.936;2024-01-16T04:18:20;95358.98;;;-2.64;100.0
64025;BME280;50266;57.446;26.936;2024-01-16T04:19:20;95363.23;;;-2.63;100.0
64025;BME280;50266;57.446;26.936;2024-01-16T04:20:20;95362.4;;;-2.61;100.0
64025;BME280;50266;57.446;26.936;2024-01-16T04:21:20;95368.59;;;-2.66;100.0
64025;BME280;50266;57.446;26.936;2024-01-16T04:22:21;95372.11;;;-2.8;100.0
64025;BME280;50266;57.446;26.936;2024-01-16T04:23:21;95373.14;;;-2.97;100.0
64025;BME280;50266;57.446;26.936;2024-01-16T04:24:21;95372.08;;;-3.06;100.0
64025;BME280;50266;57.446;26.936;2024-01-16T04:25:21;95380.05;;;-3.08;100.0
64025;BME280;50266;57.446;26.936;2024-01-16T04:26:21;95372.97;;;-3.15;100.0
64025;BME280;50266;57.446;26.936;2024-01-16T04:27:21;95378.42;;;-3.23;100.0
64025;BME280;50266;57.446;26.936;2024-01-16T04:28:21;95380.85;;;-3.26;100.0
64025;BME280;50266;57.446;26.936;2024-01-16T04:29:21;95382.47;;;-3.38;100.0
64025;BME280;50266;57.446;26.936;2024-01-16T04:30:21;95384.74;;;-3.62;100.0
64025;BME280;50266;57.446;26.936;2024-01-16T04:31:21;95381.89;;;-3.85;100.0
64025;BME280;50266;57.446;26.936;2024-01-16T04:32:21;95390.06;;;-3.98;100.0
64025;BME280;50266;57.446;26.936;2024-01-16T04:33:21;95389.19;;;-4.08;100.0
64025;BME280;50266;57.446;26.936;2024-01-16T04:34:21;95386.77;;;-4.16;100.0
64025;BME280;50266;57.446;26.936;2024-01-16T04:35:21;95393.34;;;-4.2;100.0
64025;BME280;50266;57.446;26.936;2024-01-16T04:36:21;95393.45;;;-4.22;100.0
64025;BME280;50266;57.446;26.936;2024-01-16T04:37:21;95398.47;;;-4.22;100.0
64025;BME280;50266;57.446;26.936;2024-01-16T04:38:21;95398.05;;;-4.23;100.0
64025;BME280;50266;57.446;26.936;2024-01-16T04:39:21;95398.91;;;-4.28;100.0
64025;BME280;50266;57.446;26.936;2024-01-16T04:40:21;95404.99;;;-4.35;100.0
64025;BME280;50266;57.446;26.936;2024-01-16T04:41:21;95401.87;;;-4.44;100.0
64025;BME280;50266;57.446;26.936;2024-01-16T04:42:21;95402.28;;;-4.46;100.0
64025;BME280;50266;57.446;26.936;2024-01-16T04:43:21;95408.23;;;-4.53;100.0
64025;BME280;50266;57.446;26.936;2024-01-16T04:44:21;95405.38;;;-4.53;100.0
64025;BME280;50266;57.446;26.936;2024-01-16T04:45:21;95416.36;;;-4.64;100.0
64025;BME280;50266;57.446;26.936;2024-01-16T04:46:21;95412.8;;;-4.75;100.0
64025;BME280;50266;57.446;26.936;2024-01-16T04:47:21;95414.3;;;-4.95;100.0
64025;BME280;50266;57.446;26.936;2024-01-16T04:48:21;95411.68;;;-5.06;100.0
64025;BME280;50266;57.446;26.936;2024-01-16T04:49:21;95418.84;;;-5.05;100.0
64025;BME280;50266;57.446;26.936;2024-01-16T04:50:21;95414.72;;;-5.15;100.0
64025;BME280;50266;57.446;26.936;2024-01-16T04:51:21;95420.48;;;-5.22;100.0
64025;BME280;50266;57.446;26.936;2024-01-16T04:52:21;95418.38;;;-5.37;100.0
64025;BME280;50266;57.446;26.936;2024-01-16T04:53:21;95410.94;;;-5.44;100.0
64025;BME280;50266;57.446;26.936;2024-01-16T04:54:21;95410.59;;;-5.51;100.0
64025;BME280;50266;57.446;26.936;2024-01-16T04:55:21;95406.77;;;-5.52;100.0
64025;BME280;50266;57.446;26.936;2024-01-16T04:56:21;95411.46;;;-5.56;100.0
64025;BME280;50266;57.446;26.936;2024-01-16T04:57:21;95407.67;;;-5.79;100.0
64025;BME280;50266;57.446;26.936;2024-01-16T04:58:21;95406.73;;;-6.07;100.0
64025;BME280;50266;57.446;26.936;2024-01-16T04:59:22;95410.24;;;-6.22;100.0
64025;BME280;50266;57.446;26.936;2024-01-16T05:00:22;95406.2;;;-6.22;100.0
64025;BME280;50266;57.446;26.936;2024-01-16T05:01:22;95407.17;;;-6.36;100.0
64025;BME280;50266;57.446;26.936;2024-01-16T05:02:22;95406.61;;;-6.4;100.0
64025;BME280;50266;57.446;26.936;2024-01-16T05:03:22;95415.3;;;-6.45;100.0
64025;BME280;50266;57.446;26.936;2024-01-16T05:04:22;95415.02;;;-6.56;100.0
64025;BME280;50266;57.446;26.936;2024-01-16T05:05:22;95415.98;;;-6.56;100.0
64025;BME280;50266;57.446;26.936;2024-01-16T05:06:22;95418.74;;;-6.59;100.0
64025;BME280;50266;57.446;26.936;2024-01-16T05:07:23;95416.14;;;-6.68;100.0
64025;BME280;50266;57.446;26.936;2024-01-16T05:08:22;95414.67;;;-6.72;100.0
64025;BME280;50266;57.446;26.936;2024-01-16T05:09:22;95413.17;;;-6.69;100.0
64025;BME280;50266;57.446;26.936;2024-01-16T05:10:22;95415.38;;;-6.76;100.0
64025;BME280;50266;57.446;26.936;2024-01-16T05:11:22;95422.58;;;-6.83;100.0
64025;BME280;50266;57.446;26.936;2024-01-16T05:12:22;95418.91;;;-6.79;100.0
64025;BME280;50266;57.446;26.936;2024-01-16T05:13:22;95420.7;;;-6.94;100.0
64025;BME280;50266;57.446;26.936;2024-01-16T05:14:22;95424.3;;;-6.96;100.0